sensor_id;sensor_type;location;lat;lon;timestamp;temperature;humidity
31113;DHT22;17763;48.730;9.136;2023-10-09T00:01:45;15.20;91.20
31113;DHT22;17763;48.730;9.136;2023-10-09T00:04:12;15.00;91.30
31113;DHT22;17763;48.730;9.136;2023-10-09T00:06:41;15.10;91.20
31113;DHT22;17763;48.730;9.136;2023-10-09T00:09:09;15.10;91.00
31113;DHT22;17763;48.730;9.136;2023-10-09T00:11:44;15.10;90.80
31113;DHT22;17763;48.730;9.136;2023-10-09T00:14:11;15.10;90.80
31113;DHT22;17763;48.730;9.136;2023-10-09T00:16:36;15.10;90.90
31113;DHT22;17763;48.730;9.136;2023-10-09T00:19:08;15.10;90.80
31113;DHT22;17763;48.730;9.136;2023-10-09T00:21:51;15.10;90.70
31113;DHT22;17763;48.730;9.136;2023-10-09T00:24:22;15.10;90.70
31113;DHT22;17763;48.730;9.136;2023-10-09T00:26:51;15.10;90.90
31113;DHT22;17763;48.730;9.136;2023-10-09T00:29:17;15.10;91.00
31113;DHT22;17763;48.730;9.136;2023-10-09T00:32:00;15.10;90.90
31113;DHT22;17763;48.730;9.136;2023-10-09T00:34:37;15.10;90.90
31113;DHT22;17763;48.730;9.136;2023-10-09T00:37:06;15.10;91.00
31113;DHT22;17763;48.730;9.136;2023-10-09T00:39:38;15.10;91.20
31113;DHT22;17763;48.730;9.136;2023-10-09T00:42:10;15.10;90.90
31113;DHT22;17763;48.730;9.136;2023-10-09T00:44:48;15.10;90.90
31113;DHT22;17763;48.730;9.136;2023-10-09T00:47:15;15.20;90.80
31113;DHT22;17763;48.730;9.136;2023-10-09T00:50:08;15.10;90.90
31113;DHT22;17763;48.730;9.136;2023-10-09T00:52:49;15.10;90.50
31113;DHT22;17763;48.730;9.136;2023-10-09T00:55:32;15.20;90.40
31113;DHT22;17763;48.730;9.136;2023-10-09T00:58:21;15.20;90.20
31113;DHT22;17763;48.730;9.136;2023-10-09T01:00:59;15.20;90.10
31113;DHT22;17763;48.730;9.136;2023-10-09T01:03:30;15.20;90.20
31113;DHT22;17763;48.730;9.136;2023-10-09T01:06:01;15.20;90.20
31113;DHT22;17763;48.730;9.136;2023-10-09T01:08:37;15.20;90.20
31113;DHT22;17763;48.730;9.136;2023-10-09T01:11:29;15.30;90.20
31113;DHT22;17763;48.730;9.136;2023-10-09T01:13:56;15.20;90.10
31113;DHT22;17763;48.730;9.136;2023-10-09T01:16:40;15.20;90.10
31113;DHT22;17763;48.730;9.136;2023-10-09T01:19:10;15.20;90.20
31113;DHT22;17763;48.730;9.136;2023-10-09T01:21:48;15.20;90.30
31113;DHT22;17763;48.730;9.136;2023-10-09T01:24:16;15.20;90.40
31113;DHT22;17763;48.730;9.136;2023-10-09T01:26:42;15.10;90.60
31113;DHT22;17763;48.730;9.136;2023-10-09T01:29:31;15.10;90.70
31113;DHT22;17763;48.730;9.136;2023-10-09T01:32:00;15.10;90.80
31113;DHT22;17763;48.730;9.136;2023-10-09T01:34:30;15.10;90.80
31113;DHT22;17763;48.730;9.136;2023-10-09T01:37:13;15.10;90.80
31113;DHT22;17763;48.730;9.136;2023-10-09T01:39:51;15.10;90.90
31113;DHT22;17763;48.730;9.136;2023-10-09T01:42:18;15.00;91.20
31113;DHT22;17763;48.730;9.136;2023-10-09T01:45:12;15.00;91.30
31113;DHT22;17763;48.730;9.136;2023-10-09T01:47:41;15.00;91.40
31113;DHT22;17763;48.730;9.136;2023-10-09T01:50:11;15.00;91.20
31113;DHT22;17763;48.730;9.136;2023-10-09T01:52:45;15.00;91.40
31113;DHT22;17763;48.730;9.136;2023-10-09T01:55:14;15.00;91.50
31113;DHT22;17763;48.730;9.136;2023-10-09T01:57:58;14.90;91.50
31113;DHT22;17763;48.730;9.136;2023-10-09T02:00:34;14.90;91.50
31113;DHT22;17763;48.730;9.136;2023-10-09T02:03:07;14.90;91.50
31113;DHT22;17763;48.730;9.136;2023-10-09T02:05:34;14.90;91.60
31113;DHT22;17763;48.730;9.136;2023-10-09T02:08:01;14.90;91.60
31113;DHT22;17763;48.730;9.136;2023-10-09T02:10:32;14.90;91.70
31113;DHT22;17763;48.730;9.136;2023-10-09T02:13:04;14.90;91.80
31113;DHT22;17763;48.730;9.136;2023-10-09T02:15:36;14.90;91.90
31113;DHT22;17763;48.730;9.136;2023-10-09T02:18:23;14.80;91.90
31113;DHT22;17763;48.730;9.136;2023-10-09T02:21:05;14.80;92.10
31113;DHT22;17763;48.730;9.136;2023-10-09T02:23:35;14.80;92.30
31113;DHT22;17763;48.730;9.136;2023-10-09T02:26:18;14.80;92.40
31113;DHT22;17763;48.730;9.136;2023-10-09T02:29:11;14.80;92.60
31113;DHT22;17763;48.730;9.136;2023-10-09T02:31:39;14.80;92.80
31113;DHT22;17763;48.730;9.136;2023-10-09T02:34:19;14.80;92.80
31113;DHT22;17763;48.730;9.136;2023-10-09T02:36:47;14.70;92.90
31113;DHT22;17763;48.730;9.136;2023-10-09T02:39:26;14.70;93.00
31113;DHT22;17763;48.730;9.136;2023-10-09T02:42:00;14.70;93.10
31113;DHT22;17763;48.730;9.136;2023-10-09T02:44:47;14.70;93.10
31113;DHT22;17763;48.730;9.136;2023-10-09T02:47:19;14.70;93.20
31113;DHT22;17763;48.730;9.136;2023-10-09T02:50:10;14.70;93.30
31113;DHT22;17763;48.730;9.136;2023-10-09T02:52:48;14.70;93.30
31113;DHT22;17763;48.730;9.136;2023-10-09T02:55:28;14.70;93.40
31113;DHT22;17763;48.730;9.136;2023-10-09T02:57:54;14.60;93.50
31113;DHT22;17763;48.730;9.136;2023-10-09T03:00:33;14.60;93.80
31113;DHT22;17763;48.730;9.136;2023-10-09T03:03:02;14.60;94.10
31113;DHT22;17763;48.730;9.136;2023-10-09T03:05:31;14.60;94.10
31113;DHT22;17763;48.730;9.136;2023-10-09T03:08:02;14.60;94.20
31113;DHT22;17763;48.730;9.136;2023-10-09T03:10:28;14.60;94.10
31113;DHT22;17763;48.730;9.136;2023-10-09T03:12:53;14.60;94.00
31113;DHT22;17763;48.730;9.136;2023-10-09T03:15:20;14.60;93.80
31113;DHT22;17763;48.730;9.136;2023-10-09T03:17:48;14.70;93.80
31113;DHT22;17763;48.730;9.136;2023-10-09T03:20:16;14.70;93.80
31113;DHT22;17763;48.730;9.136;2023-10-09T03:22:44;14.70;93.80
31113;DHT22;17763;48.730;9.136;2023-10-09T03:25:10;14.70;93.80
31113;DHT22;17763;48.730;9.136;2023-10-09T03:27:43;14.70;93.90
31113;DHT22;17763;48.730;9.136;2023-10-09T03:30:15;14.70;94.00
31113;DHT22;17763;48.730;9.136;2023-10-09T03:32:51;14.70;94.20
31113;DHT22;17763;48.730;9.136;2023-10-09T03:35:21;14.70;94.30
31113;DHT22;17763;48.730;9.136;2023-10-09T03:37:56;14.70;94.50
31113;DHT22;17763;48.730;9.136;2023-10-09T03:40:25;14.70;94.60
31113;DHT22;17763;48.730;9.136;2023-10-09T03:42:53;14.60;94.60
31113;DHT22;17763;48.730;9.136;2023-10-09T03:45:22;14.70;94.70
31113;DHT22;17763;48.730;9.136;2023-10-09T03:47:55;14.60;94.70
31113;DHT22;17763;48.730;9.136;2023-10-09T03:50:23;14.60;94.70
31113;DHT22;17763;48.730;9.136;2023-10-09T03:52:52;14.60;94.80
31113;DHT22;17763;48.730;9.136;2023-10-09T03:55:20;14.60;94.50
31113;DHT22;17763;48.730;9.136;2023-10-09T03:57:47;14.60;94.40
31113;DHT22;17763;48.730;9.136;2023-10-09T04:00:18;14.60;94.60
31113;DHT22;17763;48.730;9.136;2023-10-09T04:02:57;14.60;94.40
31113;DHT22;17763;48.730;9.136;2023-10-09T04:05:29;14.60;94.70
31113;DHT22;17763;48.730;9.136;2023-10-09T04:07:56;14.60;94.60
31113;DHT22;17763;48.730;9.136;2023-10-09T04:10:24;14.60;94.60
31113;DHT22;17763;48.730;9.136;2023-10-09T04:13:10;14.60;94.60
31113;DHT22;17763;48.730;9.136;2023-10-09T04:15:38;14.60;94.70
31113;DHT22;17763;48.730;9.136;2023-10-09T04:18:07;14.60;94.60
31113;DHT22;17763;48.730;9.136;2023-10-09T04:20:41;14.50;94.50
31113;DHT22;17763;48.730;9.136;2023-10-09T04:23:35;14.60;94.30
31113;DHT22;17763;48.730;9.136;2023-10-09T04:26:01;14.60;93.80
31113;DHT22;17763;48.730;9.136;2023-10-09T04:28:39;14.70;93.50
31113;DHT22;17763;48.730;9.136;2023-10-09T04:31:07;14.70;93.30
31113;DHT22;17763;48.730;9.136;2023-10-09T04:33:33;14.70;92.90
31113;DHT22;17763;48.730;9.136;2023-10-09T04:36:05;14.80;92.80
31113;DHT22;17763;48.730;9.136;2023-10-09T04:38:47;14.80;92.70
31113;DHT22;17763;48.730;9.136;2023-10-09T04:41:30;14.80;92.80
31113;DHT22;17763;48.730;9.136;2023-10-09T04:44:24;14.90;93.50
31113;DHT22;17763;48.730;9.136;2023-10-09T04:47:01;14.80;94.40
31113;DHT22;17763;48.730;9.136;2023-10-09T04:49:37;14.70;94.40
31113;DHT22;17763;48.730;9.136;2023-10-09T04:52:29;14.70;94.50
31113;DHT22;17763;48.730;9.136;2023-10-09T04:54:58;14.70;94.40
31113;DHT22;17763;48.730;9.136;2023-10-09T04:57:40;14.70;94.50
31113;DHT22;17763;48.730;9.136;2023-10-09T05:05:28;14.70;94.40
31113;DHT22;17763;48.730;9.136;2023-10-09T05:08:17;14.70;94.40
31113;DHT22;17763;48.730;9.136;2023-10-09T05:10:42;14.70;94.30
31113;DHT22;17763;48.730;9.136;2023-10-09T05:13:33;14.60;94.30
31113;DHT22;17763;48.730;9.136;2023-10-09T05:16:17;14.60;94.30
31113;DHT22;17763;48.730;9.136;2023-10-09T05:18:51;14.60;94.20
31113;DHT22;17763;48.730;9.136;2023-10-09T05:21:42;14.70;94.10
31113;DHT22;17763;48.730;9.136;2023-10-09T05:24:08;14.60;94.00
31113;DHT22;17763;48.730;9.136;2023-10-09T05:29:18;14.60;94.20
31113;DHT22;17763;48.730;9.136;2023-10-09T05:32:04;14.60;94.40
31113;DHT22;17763;48.730;9.136;2023-10-09T05:34:31;14.60;94.20
31113;DHT22;17763;48.730;9.136;2023-10-09T05:37:03;14.70;94.20
31113;DHT22;17763;48.730;9.136;2023-10-09T05:39:48;14.70;93.90
31113;DHT22;17763;48.730;9.136;2023-10-09T05:42:34;14.70;93.70
31113;DHT22;17763;48.730;9.136;2023-10-09T05:45:06;14.70;93.60
31113;DHT22;17763;48.730;9.136;2023-10-09T05:48:00;14.70;93.50
31113;DHT22;17763;48.730;9.136;2023-10-09T05:50:29;14.80;93.10
31113;DHT22;17763;48.730;9.136;2023-10-09T05:53:08;14.80;92.90
31113;DHT22;17763;48.730;9.136;2023-10-09T05:55:42;14.90;93.00
31113;DHT22;17763;48.730;9.136;2023-10-09T05:58:36;14.90;92.90
31113;DHT22;17763;48.730;9.136;2023-10-09T06:01:28;15.00;92.80
31113;DHT22;17763;48.730;9.136;2023-10-09T06:04:17;15.00;92.60
31113;DHT22;17763;48.730;9.136;2023-10-09T06:06:46;15.10;92.60
31113;DHT22;17763;48.730;9.136;2023-10-09T06:09:26;15.10;92.50
31113;DHT22;17763;48.730;9.136;2023-10-09T06:12:14;15.20;92.50
31113;DHT22;17763;48.730;9.136;2023-10-09T06:15:02;15.20;92.30
31113;DHT22;17763;48.730;9.136;2023-10-09T06:18:06;15.30;92.10
31113;DHT22;17763;48.730;9.136;2023-10-09T06:20:50;15.30;92.10
31113;DHT22;17763;48.730;9.136;2023-10-09T06:23:33;15.30;92.00
31113;DHT22;17763;48.730;9.136;2023-10-09T06:26:22;15.40;91.90
31113;DHT22;17763;48.730;9.136;2023-10-09T06:28:54;15.50;92.00
31113;DHT22;17763;48.730;9.136;2023-10-09T06:31:39;15.40;92.00
31113;DHT22;17763;48.730;9.136;2023-10-09T06:34:27;15.50;92.00
31113;DHT22;17763;48.730;9.136;2023-10-09T06:37:01;15.60;92.10
31113;DHT22;17763;48.730;9.136;2023-10-09T06:39:43;15.60;92.20
31113;DHT22;17763;48.730;9.136;2023-10-09T06:42:24;15.60;92.00
31113;DHT22;17763;48.730;9.136;2023-10-09T06:45:09;15.70;91.80
31113;DHT22;17763;48.730;9.136;2023-10-09T06:47:48;15.70;91.70
31113;DHT22;17763;48.730;9.136;2023-10-09T06:50:46;15.70;91.60
31113;DHT22;17763;48.730;9.136;2023-10-09T06:53:33;15.80;91.60
31113;DHT22;17763;48.730;9.136;2023-10-09T06:56:25;15.80;91.40
31113;DHT22;17763;48.730;9.136;2023-10-09T06:58:53;15.80;91.30
31113;DHT22;17763;48.730;9.136;2023-10-09T07:01:26;15.90;91.00
31113;DHT22;17763;48.730;9.136;2023-10-09T07:04:07;16.00;90.80
31113;DHT22;17763;48.730;9.136;2023-10-09T07:06:47;16.10;90.40
31113;DHT22;17763;48.730;9.136;2023-10-09T07:09:15;16.20;90.20
31113;DHT22;17763;48.730;9.136;2023-10-09T07:11:51;16.20;90.00
31113;DHT22;17763;48.730;9.136;2023-10-09T07:14:24;16.30;89.50
31113;DHT22;17763;48.730;9.136;2023-10-09T07:17:06;16.40;89.00
31113;DHT22;17763;48.730;9.136;2023-10-09T07:19:51;16.50;88.90
31113;DHT22;17763;48.730;9.136;2023-10-09T07:22:21;16.50;88.90
31113;DHT22;17763;48.730;9.136;2023-10-09T07:24:51;16.60;89.00
31113;DHT22;17763;48.730;9.136;2023-10-09T07:27:31;16.70;88.90
31113;DHT22;17763;48.730;9.136;2023-10-09T07:30:20;16.70;88.80
31113;DHT22;17763;48.730;9.136;2023-10-09T07:35:21;16.90;88.80
31113;DHT22;17763;48.730;9.136;2023-10-09T07:38:06;16.90;88.60
31113;DHT22;17763;48.730;9.136;2023-10-09T07:40:51;17.00;88.60
31113;DHT22;17763;48.730;9.136;2023-10-09T07:43:25;17.10;88.50
31113;DHT22;17763;48.730;9.136;2023-10-09T07:46:17;17.10;88.30
31113;DHT22;17763;48.730;9.136;2023-10-09T07:49:05;17.20;88.30
31113;DHT22;17763;48.730;9.136;2023-10-09T07:51:50;17.30;88.30
31113;DHT22;17763;48.730;9.136;2023-10-09T07:54:18;17.30;88.30
31113;DHT22;17763;48.730;9.136;2023-10-09T07:56:58;17.40;88.30
31113;DHT22;17763;48.730;9.136;2023-10-09T07:59:42;17.50;88.40
31113;DHT22;17763;48.730;9.136;2023-10-09T08:02:20;17.50;88.30
31113;DHT22;17763;48.730;9.136;2023-10-09T08:05:00;17.60;88.10
31113;DHT22;17763;48.730;9.136;2023-10-09T08:07:33;17.70;88.00
31113;DHT22;17763;48.730;9.136;2023-10-09T08:10:08;17.70;87.60
31113;DHT22;17763;48.730;9.136;2023-10-09T08:12:40;17.80;87.20
31113;DHT22;17763;48.730;9.136;2023-10-09T08:15:07;17.90;86.90
31113;DHT22;17763;48.730;9.136;2023-10-09T08:17:48;18.00;86.50
31113;DHT22;17763;48.730;9.136;2023-10-09T08:20:36;18.10;85.90
31113;DHT22;17763;48.730;9.136;2023-10-09T08:23:16;18.10;85.50
31113;DHT22;17763;48.730;9.136;2023-10-09T08:26:04;18.20;85.20
31113;DHT22;17763;48.730;9.136;2023-10-09T08:28:43;18.30;84.90
31113;DHT22;17763;48.730;9.136;2023-10-09T08:31:12;18.30;85.40
31113;DHT22;17763;48.730;9.136;2023-10-09T08:33:45;18.50;85.80
31113;DHT22;17763;48.730;9.136;2023-10-09T08:36:22;18.50;86.90
31113;DHT22;17763;48.730;9.136;2023-10-09T08:38:56;18.60;88.10
31113;DHT22;17763;48.730;9.136;2023-10-09T08:41:24;18.60;88.20
31113;DHT22;17763;48.730;9.136;2023-10-09T08:43:56;18.70;88.50
31113;DHT22;17763;48.730;9.136;2023-10-09T08:46:27;18.70;89.10
31113;DHT22;17763;48.730;9.136;2023-10-09T08:48:57;18.80;90.00
31113;DHT22;17763;48.730;9.136;2023-10-09T08:51:27;18.80;90.00
31113;DHT22;17763;48.730;9.136;2023-10-09T08:53:56;18.90;90.00
31113;DHT22;17763;48.730;9.136;2023-10-09T08:56:22;18.90;89.20
31113;DHT22;17763;48.730;9.136;2023-10-09T08:58:52;19.00;88.10
31113;DHT22;17763;48.730;9.136;2023-10-09T09:01:22;19.00;86.80
31113;DHT22;17763;48.730;9.136;2023-10-09T09:03:50;19.10;85.40
31113;DHT22;17763;48.730;9.136;2023-10-09T09:06:19;19.10;84.50
31113;DHT22;17763;48.730;9.136;2023-10-09T09:08:46;19.10;83.70
31113;DHT22;17763;48.730;9.136;2023-10-09T09:11:16;19.20;83.60
31113;DHT22;17763;48.730;9.136;2023-10-09T09:16:30;19.30;83.10
31113;DHT22;17763;48.730;9.136;2023-10-09T09:19:02;19.30;83.00
31113;DHT22;17763;48.730;9.136;2023-10-09T09:21:56;19.40;82.70
31113;DHT22;17763;48.730;9.136;2023-10-09T09:24:24;19.50;82.50
31113;DHT22;17763;48.730;9.136;2023-10-09T09:29:39;19.60;82.60
31113;DHT22;17763;48.730;9.136;2023-10-09T09:32:06;19.70;82.80
31113;DHT22;17763;48.730;9.136;2023-10-09T09:34:53;19.70;82.80
31113;DHT22;17763;48.730;9.136;2023-10-09T09:37:23;19.80;82.80
31113;DHT22;17763;48.730;9.136;2023-10-09T09:40:10;19.90;82.30
31113;DHT22;17763;48.730;9.136;2023-10-09T09:42:59;20.00;82.10
31113;DHT22;17763;48.730;9.136;2023-10-09T09:45:35;20.10;82.00
31113;DHT22;17763;48.730;9.136;2023-10-09T09:48:05;20.20;81.80
31113;DHT22;17763;48.730;9.136;2023-10-09T09:50:37;20.30;81.70
31113;DHT22;17763;48.730;9.136;2023-10-09T09:53:11;20.40;81.70
31113;DHT22;17763;48.730;9.136;2023-10-09T09:55:49;20.50;81.60
31113;DHT22;17763;48.730;9.136;2023-10-09T09:58:21;20.60;82.60
31113;DHT22;17763;48.730;9.136;2023-10-09T10:00:53;20.70;83.20
31113;DHT22;17763;48.730;9.136;2023-10-09T10:03:34;20.80;83.40
31113;DHT22;17763;48.730;9.136;2023-10-09T10:06:04;20.90;83.50
31113;DHT22;17763;48.730;9.136;2023-10-09T10:08:38;21.00;83.70
31113;DHT22;17763;48.730;9.136;2023-10-09T10:11:09;21.10;83.00
31113;DHT22;17763;48.730;9.136;2023-10-09T10:13:55;21.10;80.30
31113;DHT22;17763;48.730;9.136;2023-10-09T10:16:26;21.20;79.90
31113;DHT22;17763;48.730;9.136;2023-10-09T10:19:02;21.20;79.10
31113;DHT22;17763;48.730;9.136;2023-10-09T10:21:37;21.30;76.50
31113;DHT22;17763;48.730;9.136;2023-10-09T10:29:43;21.40;74.20
31113;DHT22;17763;48.730;9.136;2023-10-09T10:32:13;21.60;74.10
31113;DHT22;17763;48.730;9.136;2023-10-09T10:40:12;21.90;72.50
31113;DHT22;17763;48.730;9.136;2023-10-09T10:43:00;22.00;72.10
31113;DHT22;17763;48.730;9.136;2023-10-09T10:45:38;22.10;72.10
31113;DHT22;17763;48.730;9.136;2023-10-09T10:48:09;22.20;71.00
31113;DHT22;17763;48.730;9.136;2023-10-09T10:50:57;22.20;68.50
31113;DHT22;17763;48.730;9.136;2023-10-09T10:53:23;22.20;67.70
31113;DHT22;17763;48.730;9.136;2023-10-09T10:56:00;22.10;67.50
31113;DHT22;17763;48.730;9.136;2023-10-09T10:58:38;22.20;68.10
31113;DHT22;17763;48.730;9.136;2023-10-09T11:01:13;22.20;68.00
31113;DHT22;17763;48.730;9.136;2023-10-09T11:03:41;22.20;67.40
31113;DHT22;17763;48.730;9.136;2023-10-09T11:06:30;22.20;67.40
31113;DHT22;17763;48.730;9.136;2023-10-09T11:09:04;22.30;67.70
31113;DHT22;17763;48.730;9.136;2023-10-09T11:11:49;22.30;66.40
31113;DHT22;17763;48.730;9.136;2023-10-09T11:14:15;22.30;67.10
31113;DHT22;17763;48.730;9.136;2023-10-09T11:16:43;22.30;67.80
31113;DHT22;17763;48.730;9.136;2023-10-09T11:19:13;22.40;67.90
31113;DHT22;17763;48.730;9.136;2023-10-09T11:21:58;22.50;67.90
31113;DHT22;17763;48.730;9.136;2023-10-09T11:24:34;22.70;68.10
31113;DHT22;17763;48.730;9.136;2023-10-09T11:27:05;22.70;68.00
31113;DHT22;17763;48.730;9.136;2023-10-09T11:29:34;22.60;67.10
31113;DHT22;17763;48.730;9.136;2023-10-09T11:32:15;22.70;66.20
31113;DHT22;17763;48.730;9.136;2023-10-09T11:37:34;22.70;65.30
31113;DHT22;17763;48.730;9.136;2023-10-09T11:40:30;22.60;65.50
31113;DHT22;17763;48.730;9.136;2023-10-09T11:43:19;22.60;63.30
31113;DHT22;17763;48.730;9.136;2023-10-09T11:46:11;22.60;64.10
31113;DHT22;17763;48.730;9.136;2023-10-09T11:48:38;22.50;61.30
31113;DHT22;17763;48.730;9.136;2023-10-09T11:51:32;22.40;59.80
31113;DHT22;17763;48.730;9.136;2023-10-09T11:53:58;22.40;57.10
31113;DHT22;17763;48.730;9.136;2023-10-09T11:56:24;22.40;54.30
31113;DHT22;17763;48.730;9.136;2023-10-09T11:58:52;22.40;50.60
31113;DHT22;17763;48.730;9.136;2023-10-09T12:01:20;22.40;51.90
31113;DHT22;17763;48.730;9.136;2023-10-09T12:03:47;22.40;51.30
31113;DHT22;17763;48.730;9.136;2023-10-09T12:06:16;22.50;51.00
31113;DHT22;17763;48.730;9.136;2023-10-09T12:08:45;22.50;50.80
31113;DHT22;17763;48.730;9.136;2023-10-09T12:11:17;22.50;50.50
31113;DHT22;17763;48.730;9.136;2023-10-09T12:13:54;22.60;49.40
31113;DHT22;17763;48.730;9.136;2023-10-09T12:16:26;22.60;47.90
31113;DHT22;17763;48.730;9.136;2023-10-09T12:18:57;22.70;47.30
31113;DHT22;17763;48.730;9.136;2023-10-09T12:21:23;22.80;46.30
31113;DHT22;17763;48.730;9.136;2023-10-09T12:23:51;22.90;46.70
31113;DHT22;17763;48.730;9.136;2023-10-09T12:26:18;23.00;46.10
31113;DHT22;17763;48.730;9.136;2023-10-09T12:28:49;23.00;45.60
31113;DHT22;17763;48.730;9.136;2023-10-09T12:31:16;23.10;45.10
31113;DHT22;17763;48.730;9.136;2023-10-09T12:33:45;23.20;44.80
31113;DHT22;17763;48.730;9.136;2023-10-09T12:36:15;23.40;44.60
31113;DHT22;17763;48.730;9.136;2023-10-09T12:38:49;23.50;43.90
31113;DHT22;17763;48.730;9.136;2023-10-09T12:41:24;23.60;43.70
31113;DHT22;17763;48.730;9.136;2023-10-09T12:43:57;23.80;43.70
31113;DHT22;17763;48.730;9.136;2023-10-09T12:46:26;24.00;43.60
31113;DHT22;17763;48.730;9.136;2023-10-09T12:48:53;24.20;44.40
31113;DHT22;17763;48.730;9.136;2023-10-09T12:51:25;24.30;45.20
31113;DHT22;17763;48.730;9.136;2023-10-09T12:54:00;24.40;44.70
31113;DHT22;17763;48.730;9.136;2023-10-09T12:56:29;24.30;44.70
31113;DHT22;17763;48.730;9.136;2023-10-09T12:59:11;24.40;45.20
31113;DHT22;17763;48.730;9.136;2023-10-09T13:01:43;24.50;45.90
31113;DHT22;17763;48.730;9.136;2023-10-09T13:04:13;24.40;44.20
31113;DHT22;17763;48.730;9.136;2023-10-09T13:06:46;24.30;45.10
31113;DHT22;17763;48.730;9.136;2023-10-09T13:09:18;24.30;46.10
31113;DHT22;17763;48.730;9.136;2023-10-09T13:11:50;24.30;46.40
31113;DHT22;17763;48.730;9.136;2023-10-09T13:14:16;24.30;46.20
31113;DHT22;17763;48.730;9.136;2023-10-09T13:16:48;24.30;46.80
31113;DHT22;17763;48.730;9.136;2023-10-09T13:19:18;24.30;47.60
31113;DHT22;17763;48.730;9.136;2023-10-09T13:21:44;24.40;47.40
31113;DHT22;17763;48.730;9.136;2023-10-09T13:24:10;24.40;45.20
31113;DHT22;17763;48.730;9.136;2023-10-09T13:26:41;24.30;42.20
31113;DHT22;17763;48.730;9.136;2023-10-09T13:29:10;24.30;41.90
31113;DHT22;17763;48.730;9.136;2023-10-09T13:31:37;24.30;41.80
31113;DHT22;17763;48.730;9.136;2023-10-09T13:34:04;24.30;40.80
31113;DHT22;17763;48.730;9.136;2023-10-09T13:36:37;24.40;41.40
31113;DHT22;17763;48.730;9.136;2023-10-09T13:39:07;24.40;40.20
31113;DHT22;17763;48.730;9.136;2023-10-09T13:42:01;24.50;41.00
31113;DHT22;17763;48.730;9.136;2023-10-09T13:44:34;24.60;40.50
31113;DHT22;17763;48.730;9.136;2023-10-09T13:47:11;24.60;40.30
31113;DHT22;17763;48.730;9.136;2023-10-09T13:49:45;24.70;41.00
31113;DHT22;17763;48.730;9.136;2023-10-09T13:52:10;24.80;40.90
31113;DHT22;17763;48.730;9.136;2023-10-09T13:54:43;24.90;41.40
31113;DHT22;17763;48.730;9.136;2023-10-09T13:57:19;25.00;41.50
31113;DHT22;17763;48.730;9.136;2023-10-09T13:59:47;25.20;40.70
31113;DHT22;17763;48.730;9.136;2023-10-09T14:02:16;25.20;40.80
31113;DHT22;17763;48.730;9.136;2023-10-09T14:04:47;25.20;38.90
31113;DHT22;17763;48.730;9.136;2023-10-09T14:07:16;25.30;39.50
31113;DHT22;17763;48.730;9.136;2023-10-09T14:09:43;25.30;38.20
31113;DHT22;17763;48.730;9.136;2023-10-09T14:12:08;25.40;36.70
31113;DHT22;17763;48.730;9.136;2023-10-09T14:14:45;25.40;37.40
31113;DHT22;17763;48.730;9.136;2023-10-09T14:17:18;25.40;38.80
31113;DHT22;17763;48.730;9.136;2023-10-09T14:20:11;25.40;39.30
31113;DHT22;17763;48.730;9.136;2023-10-09T14:22:58;25.40;39.50
31113;DHT22;17763;48.730;9.136;2023-10-09T14:25:38;25.40;39.70
31113;DHT22;17763;48.730;9.136;2023-10-09T14:28:07;25.50;40.50
31113;DHT22;17763;48.730;9.136;2023-10-09T14:30:37;25.50;40.70
31113;DHT22;17763;48.730;9.136;2023-10-09T14:33:12;25.60;41.10
31113;DHT22;17763;48.730;9.136;2023-10-09T14:35:41;25.50;41.30
31113;DHT22;17763;48.730;9.136;2023-10-09T14:38:18;25.50;40.80
31113;DHT22;17763;48.730;9.136;2023-10-09T14:40:47;25.50;40.80
31113;DHT22;17763;48.730;9.136;2023-10-09T14:43:13;25.40;40.00
31113;DHT22;17763;48.730;9.136;2023-10-09T14:45:46;25.30;38.40
31113;DHT22;17763;48.730;9.136;2023-10-09T14:48:17;25.20;38.40
31113;DHT22;17763;48.730;9.136;2023-10-09T14:50:51;25.10;39.00
31113;DHT22;17763;48.730;9.136;2023-10-09T14:53:24;25.00;39.20
31113;DHT22;17763;48.730;9.136;2023-10-09T14:55:56;24.90;39.30
31113;DHT22;17763;48.730;9.136;2023-10-09T14:58:24;24.90;39.60
31113;DHT22;17763;48.730;9.136;2023-10-09T15:00:51;24.90;40.00
31113;DHT22;17763;48.730;9.136;2023-10-09T15:03:17;24.80;40.20
31113;DHT22;17763;48.730;9.136;2023-10-09T15:05:46;24.80;40.60
31113;DHT22;17763;48.730;9.136;2023-10-09T15:08:11;24.80;41.10
31113;DHT22;17763;48.730;9.136;2023-10-09T15:10:50;24.60;41.00
31113;DHT22;17763;48.730;9.136;2023-10-09T15:13:22;24.60;41.30
31113;DHT22;17763;48.730;9.136;2023-10-09T15:15:59;24.60;41.70
31113;DHT22;17763;48.730;9.136;2023-10-09T15:18:29;24.60;42.00
31113;DHT22;17763;48.730;9.136;2023-10-09T15:21:04;24.60;42.30
31113;DHT22;17763;48.730;9.136;2023-10-09T15:23:34;24.60;42.20
31113;DHT22;17763;48.730;9.136;2023-10-09T15:26:05;24.60;42.20
31113;DHT22;17763;48.730;9.136;2023-10-09T15:28:32;24.50;42.20
31113;DHT22;17763;48.730;9.136;2023-10-09T15:30:58;24.30;43.50
31113;DHT22;17763;48.730;9.136;2023-10-09T15:33:26;24.30;44.10
31113;DHT22;17763;48.730;9.136;2023-10-09T15:35:56;24.20;44.50
31113;DHT22;17763;48.730;9.136;2023-10-09T15:38:22;24.20;44.80
31113;DHT22;17763;48.730;9.136;2023-10-09T15:40:49;24.10;45.10
31113;DHT22;17763;48.730;9.136;2023-10-09T15:43:14;24.10;45.50
31113;DHT22;17763;48.730;9.136;2023-10-09T15:45:45;24.00;46.00
31113;DHT22;17763;48.730;9.136;2023-10-09T15:48:14;24.00;46.20
31113;DHT22;17763;48.730;9.136;2023-10-09T15:50:45;23.90;46.30
31113;DHT22;17763;48.730;9.136;2023-10-09T15:53:21;23.90;46.60
31113;DHT22;17763;48.730;9.136;2023-10-09T15:55:47;23.80;46.90
31113;DHT22;17763;48.730;9.136;2023-10-09T15:58:19;23.70;47.00
31113;DHT22;17763;48.730;9.136;2023-10-09T16:00:48;23.70;47.40
31113;DHT22;17763;48.730;9.136;2023-10-09T16:03:13;23.60;47.70
31113;DHT22;17763;48.730;9.136;2023-10-09T16:05:40;23.60;48.10
31113;DHT22;17763;48.730;9.136;2023-10-09T16:08:08;23.50;48.30
31113;DHT22;17763;48.730;9.136;2023-10-09T16:10:44;23.40;48.40
31113;DHT22;17763;48.730;9.136;2023-10-09T16:13:10;23.40;48.60
31113;DHT22;17763;48.730;9.136;2023-10-09T16:15:46;23.30;48.90
31113;DHT22;17763;48.730;9.136;2023-10-09T16:18:11;23.20;49.00
31113;DHT22;17763;48.730;9.136;2023-10-09T16:20:39;23.10;49.20
31113;DHT22;17763;48.730;9.136;2023-10-09T16:23:05;23.00;49.50
31113;DHT22;17763;48.730;9.136;2023-10-09T16:25:34;23.00;49.70
31113;DHT22;17763;48.730;9.136;2023-10-09T16:28:02;22.90;49.90
31113;DHT22;17763;48.730;9.136;2023-10-09T16:30:30;22.80;50.20
31113;DHT22;17763;48.730;9.136;2023-10-09T16:32:56;22.80;50.40
31113;DHT22;17763;48.730;9.136;2023-10-09T16:35:21;22.70;50.70
31113;DHT22;17763;48.730;9.136;2023-10-09T16:37:48;22.70;51.00
31113;DHT22;17763;48.730;9.136;2023-10-09T16:40:15;22.60;51.30
31113;DHT22;17763;48.730;9.136;2023-10-09T16:42:41;22.50;51.60
31113;DHT22;17763;48.730;9.136;2023-10-09T16:45:10;22.50;51.90